Time;durP1;ratioP1;P1;durP2;ratioP2;P2;SDS_P1;SDS_P2;PMS_P1;PMS_P2;Temp;Humidity;BMP_temperature;BMP_pressure;BME280_temperature;BME280_humidity;BME280_pressure;Samples;Min_cycle;Max_cycle;Signal;HPM_P1;HPM_P2
2022/11/23 00:00:34;;;;;;;5.95;2.67;;;12.20;63.80;;;;;;5023755;28;20022;-67
2022/11/23 00:03:00;;;;;;;5.40;2.72;;;12.20;63.90;;;;;;5023720;28;20179;-68
2022/11/23 00:05:27;;;;;;;7.25;2.70;;;12.20;63.80;;;;;;5023686;28;20088;-68
2022/11/23 00:07:53;;;;;;;6.25;2.55;;;12.20;63.80;;;;;;5023713;28;20085;-68
2022/11/23 00:10:19;;;;;;;3.92;2.55;;;12.20;63.80;;;;;;5023578;28;20305;-68
2022/11/23 00:12:45;;;;;;;3.63;2.38;;;12.20;64.00;;;;;;5023625;28;20034;-68
2022/11/23 00:15:13;;;;;;;3.70;2.47;;;12.10;64.00;;;;;;5023605;28;20032;-68
2022/11/23 00:17:39;;;;;;;2.95;2.10;;;12.20;63.90;;;;;;5023585;28;20041;-68
2022/11/23 00:20:07;;;;;;;6.30;2.63;;;12.20;63.90;;;;;;5023591;28;20248;-68
2022/11/23 00:22:33;;;;;;;4.45;2.53;;;12.10;64.00;;;;;;5023546;28;20025;-67
2022/11/23 00:24:59;;;;;;;6.00;2.33;;;12.20;63.90;;;;;;5023520;28;20026;-68
2022/11/23 00:27:25;;;;;;;4.35;2.50;;;12.10;63.90;;;;;;5023514;28;20029;-67
2022/11/23 00:29:51;;;;;;;4.47;2.90;;;12.10;63.80;;;;;;5023398;28;20028;-68
2022/11/23 00:32:16;;;;;;;5.07;3.20;;;12.10;64.00;;;;;;5023486;28;20018;-68
2022/11/23 00:34:42;;;;;;;5.07;2.35;;;12.10;64.00;;;;;;5023447;28;20024;-67
2022/11/23 00:37:08;;;;;;;4.95;2.53;;;12.10;64.00;;;;;;5023413;28;20202;-68
2022/11/23 00:39:34;;;;;;;3.90;2.55;;;12.10;63.90;;;;;;5023378;28;20029;-67
2022/11/23 00:41:59;;;;;;;4.63;2.78;;;12.20;63.90;;;;;;5023362;28;20038;-67
2022/11/23 00:44:25;;;;;;;4.10;2.33;;;12.20;63.80;;;;;;5023137;28;20050;-68
2022/11/23 00:46:51;;;;;;;3.47;2.55;;;12.20;63.80;;;;;;5023310;28;20093;-67
2022/11/23 00:49:17;;;;;;;5.30;2.38;;;12.20;63.80;;;;;;5023212;28;20239;-68
2022/11/23 00:51:42;;;;;;;4.30;2.60;;;12.20;63.70;;;;;;5023235;28;20010;-67
2022/11/23 00:54:08;;;;;;;6.38;2.88;;;12.20;63.80;;;;;;5025975;28;20021;-67
2022/11/23 00:56:35;;;;;;;2.90;2.13;;;12.20;63.80;;;;;;5026980;28;20368;-67
2022/11/23 00:59:02;;;;;;;5.55;2.97;;;12.10;63.80;;;;;;5025814;28;20229;-68
2022/11/23 01:01:32;;;;;;;2.70;1.88;;;12.20;63.90;;;;;;5026920;28;20018;-68
2022/11/23 01:03:59;;;;;;;4.10;2.53;;;12.20;63.90;;;;;;5026876;28;20020;-67
2022/11/23 01:06:27;;;;;;;4.28;2.67;;;12.10;64.00;;;;;;5026815;28;20213;-67
2022/11/23 01:08:59;;;;;;;3.15;2.15;;;12.10;64.00;;;;;;5026805;28;20022;-68
2022/11/23 01:11:27;;;;;;;4.15;2.40;;;12.10;64.00;;;;;;5026756;28;20093;-68
2022/11/23 01:13:54;;;;;;;4.45;2.70;;;12.10;63.90;;;;;;5025576;28;20021;-68
2022/11/23 01:16:23;;;;;;;4.28;2.58;;;12.20;64.40;;;;;;5026620;28;20058;-68
2022/11/23 01:19:03;;;;;;;4.88;2.85;;;12.20;63.90;;;;;;5026570;28;20013;-68
2022/11/23 01:21:31;;;;;;;3.85;2.30;;;12.20;63.90;;;;;;5026578;28;20025;-67
2022/11/23 01:23:57;;;;;;;4.70;2.80;;;12.20;63.80;;;;;;5026514;28;20014;-68
2022/11/23 01:26:23;;;;;;;4.13;2.55;;;12.20;63.90;;;;;;5026462;28;20032;-68
2022/11/23 01:28:50;;;;;;;4.13;2.17;;;12.20;63.80;;;;;;5026402;28;20029;-68
2022/11/23 01:31:20;;;;;;;4.22;2.03;;;12.20;63.70;;;;;;5026303;28;20021;-68
2022/11/23 01:33:46;;;;;;;4.28;2.60;;;12.20;63.60;;;;;;5026316;28;20022;-67
2022/11/23 01:36:18;;;;;;;4.25;2.42;;;12.20;64.40;;;;;;5026297;28;20310;-68
2022/11/23 01:38:45;;;;;;;3.42;2.22;;;12.20;63.80;;;;;;5026280;28;20022;-67
2022/11/23 01:41:20;;;;;;;3.78;2.10;;;12.20;63.80;;;;;;5026168;28;20021;-67
2022/11/23 01:43:46;;;;;;;4.38;2.20;;;12.10;63.80;;;;;;5025935;28;20037;-68
2022/11/23 01:46:12;;;;;;;4.55;2.40;;;12.10;64.00;;;;;;5026087;28;20033;-68
2022/11/23 01:48:45;;;;;;;3.17;2.17;;;12.20;63.80;;;;;;5026033;28;20191;-68
2022/11/23 01:51:18;;;;;;;2.40;2.10;;;12.20;63.80;;;;;;5024776;28;20105;-68
2022/11/23 01:53:47;;;;;;;2.92;2.20;;;12.10;63.80;;;;;;5025931;28;20042;-68
2022/11/23 01:56:19;;;;;;;4.65;2.20;;;12.10;63.80;;;;;;5025899;28;20014;-68
2022/11/23 01:58:51;;;;;;;3.00;2.20;;;12.10;63.90;;;;;;5025906;28;20041;-68
2022/11/23 02:01:17;;;;;;;8.20;2.95;;;12.10;63.80;;;;;;5024683;28;20028;-69
2022/11/23 02:03:45;;;;;;;5.30;2.50;;;12.20;63.90;;;;;;5025486;28;20026;-68
2022/11/23 02:06:15;;;;;;;4.23;2.67;;;12.10;63.80;;;;;;5025744;28;20310;-68
2022/11/23 02:08:41;;;;;;;2.38;2.05;;;12.20;63.80;;;;;;5024483;28;20252;-68
2022/11/23 02:11:08;;;;;;;2.65;1.98;;;12.20;63.60;;;;;;5025511;28;20082;-68
2022/11/23 02:13:34;;;;;;;2.95;2.17;;;12.20;63.60;;;;;;5025560;28;20025;-67
2022/11/23 02:16:01;;;;;;;3.50;2.15;;;12.20;63.60;;;;;;5025525;28;20026;-68
2022/11/23 02:18:30;;;;;;;4.00;2.47;;;12.20;63.60;;;;;;5025498;28;20045;-69
2022/11/23 02:20:59;;;;;;;;;;;12.20;63.60;;;;;;5025865;28;20021;-68
2022/11/23 02:23:31;;;;;;;5.72;2.78;;;12.20;63.80;;;;;;5025454;28;19960;-68
2022/11/23 02:26:19;;;;;;;4.22;2.40;;;12.20;63.80;;;;;;5025377;28;20026;-68
2022/11/23 02:28:53;;;;;;;3.95;2.15;;;12.10;63.80;;;;;;5025337;28;20042;-68
2022/11/23 02:31:19;;;;;;;2.88;2.03;;;12.20;63.80;;;;;;5025179;28;20081;-69
2022/11/23 02:33:45;;;;;;;5.32;2.53;;;12.20;63.80;;;;;;5025184;28;20310;-68
2022/11/23 02:36:33;;;;;;;4.10;2.30;;;12.10;63.80;;;;;;5023984;28;20018;-68
2022/11/23 02:39:02;;;;;;;4.45;2.30;;;12.10;63.90;;;;;;5025155;28;20025;-68
2022/11/23 02:41:35;;;;;;;4.03;2.30;;;12.20;63.90;;;;;;5025024;28;20081;-67
2022/11/23 02:44:02;;;;;;;3.22;2.10;;;12.10;63.80;;;;;;5024841;28;20341;-69
2022/11/23 02:46:28;;;;;;;4.43;2.65;;;12.10;63.80;;;;;;5024946;28;20045;-68
2022/11/23 02:48:54;;;;;;;3.97;2.35;;;12.10;63.90;;;;;;5024876;28;20068;-68
2022/11/23 02:51:19;;;;;;;4.80;2.00;;;12.20;63.90;;;;;;5024412;28;20049;-67
2022/11/23 02:53:45;;;;;;;7.00;2.67;;;12.10;63.70;;;;;;5024823;28;20330;-69
2022/11/23 02:56:11;;;;;;;2.33;1.95;;;12.20;64.30;;;;;;5024766;28;20451;-67
2022/11/23 02:58:38;;;;;;;4.03;2.03;;;12.10;63.70;;;;;;5024717;28;20306;-69
2022/11/23 03:01:04;;;;;;;2.45;2.25;;;12.20;63.70;;;;;;5024670;28;20022;-68
2022/11/23 03:03:30;;;;;;;4.00;2.10;;;12.20;63.70;;;;;;5024628;28;20096;-67
2022/11/23 03:05:55;;;;;;;2.25;2.03;;;12.20;63.80;;;;;;5024573;28;20088;-68
2022/11/23 03:08:21;;;;;;;4.85;2.42;;;12.20;63.80;;;;;;5024554;28;20026;-68
2022/11/23 03:10:47;;;;;;;4.18;2.42;;;12.20;63.90;;;;;;5023259;28;20026;-68
2022/11/23 03:13:13;;;;;;;2.50;1.70;;;12.10;63.80;;;;;;5024485;28;20024;-67
2022/11/23 03:15:38;;;;;;;3.75;1.98;;;12.10;63.90;;;;;;5023813;28;20018;-67
2022/11/23 03:18:04;;;;;;;3.97;2.08;;;12.10;63.90;;;;;;5024395;28;20022;-67
2022/11/23 03:20:30;;;;;;;3.20;2.65;;;12.20;63.80;;;;;;5024365;28;20021;-67
2022/11/23 03:22:56;;;;;;;3.10;2.20;;;12.10;63.90;;;;;;5024315;28;20025;-68
2022/11/23 03:25:21;;;;;;;6.10;2.42;;;12.10;63.90;;;;;;5024276;28;20077;-67
2022/11/23 03:27:47;;;;;;;3.65;2.50;;;12.10;63.90;;;;;;5024257;28;20030;-68
2022/11/23 03:30:14;;;;;;;4.07;2.00;;;12.10;63.90;;;;;;5024169;28;20215;-67
2022/11/23 03:32:39;;;;;;;3.65;2.42;;;12.10;63.90;;;;;;5024171;28;20029;-67
2022/11/23 03:35:06;;;;;;;3.80;2.00;;;12.10;63.80;;;;;;5024129;28;20325;-68
2022/11/23 03:37:33;;;;;;;3.75;2.13;;;12.10;63.80;;;;;;5024091;28;20017;-68
2022/11/23 03:39:58;;;;;;;4.25;2.30;;;12.20;63.80;;;;;;5024057;28;20029;-68
2022/11/23 03:42:24;;;;;;;3.22;2.20;;;12.20;63.70;;;;;;5024012;28;20026;-67
2022/11/23 03:44:50;;;;;;;3.35;2.08;;;12.20;63.70;;;;;;5023864;28;20104;-68
2022/11/23 03:47:16;;;;;;;2.63;2.03;;;12.20;63.60;;;;;;5023947;28;20030;-68
2022/11/23 03:49:41;;;;;;;3.63;2.22;;;12.20;63.70;;;;;;5023854;28;20264;-67
2022/11/23 03:52:07;;;;;;;2.20;1.90;;;12.20;63.80;;;;;;5023882;28;20085;-68
2022/11/23 03:54:33;;;;;;;2.63;2.05;;;12.20;63.80;;;;;;5023848;28;20310;-68
2022/11/23 03:56:59;;;;;;;4.65;2.40;;;12.10;63.70;;;;;;5023837;28;20261;-68
2022/11/23 03:59:24;;;;;;;2.75;2.08;;;12.20;63.90;;;;;;5023779;28;20041;-68
2022/11/23 04:01:50;;;;;;;2.88;2.25;;;12.10;63.80;;;;;;5023741;28;20049;-68
2022/11/23 04:04:17;;;;;;;3.20;2.53;;;12.10;63.80;;;;;;5023721;28;20025;-67
2022/11/23 04:06:43;;;;;;;2.97;1.85;;;12.10;63.90;;;;;;5023694;28;20381;-68
2022/11/23 04:09:11;;;;;;;3.30;2.13;;;12.10;63.90;;;;;;5023609;28;20033;-67
2022/11/23 04:11:37;;;;;;;3.33;1.98;;;12.10;63.80;;;;;;5023674;28;20461;-68
2022/11/23 04:14:03;;;;;;;2.75;1.70;;;12.20;63.80;;;;;;5023639;28;20022;-69
2022/11/23 04:16:29;;;;;;;3.28;2.20;;;12.20;63.80;;;;;;5022449;28;20085;-68
2022/11/23 04:18:54;;;;;;;2.20;1.85;;;12.10;63.70;;;;;;5023613;28;20025;-68
2022/11/23 04:21:20;;;;;;;3.50;2.25;;;12.10;63.80;;;;;;5023553;28;20017;-68
2022/11/23 04:23:46;;;;;;;2.30;2.00;;;12.10;63.70;;;;;;5023553;28;20032;-68
2022/11/23 04:26:12;;;;;;;3.38;2.42;;;12.10;63.80;;;;;;5023515;28;20017;-67
2022/11/23 04:28:38;;;;;;;3.05;1.77;;;12.20;63.80;;;;;;5027211;28;20022;-67
2022/11/23 04:31:03;;;;;;;2.70;1.95;;;12.20;63.70;;;;;;5026304;28;20049;-67
2022/11/23 04:33:30;;;;;;;3.45;2.20;;;12.20;63.60;;;;;;5027453;28;20025;-67
2022/11/23 04:35:56;;;;;;;3.08;2.25;;;12.10;63.70;;;;;;5027408;28;20046;-68
2022/11/23 04:38:22;;;;;;;2.67;2.30;;;12.20;63.80;;;;;;5027366;28;20017;-68
2022/11/23 04:40:48;;;;;;;2.90;2.08;;;12.20;63.80;;;;;;5027318;28;20194;-68
2022/11/23 04:43:14;;;;;;;2.03;1.80;;;12.20;63.80;;;;;;5027105;28;20041;-67
2022/11/23 04:45:39;;;;;;;3.10;1.98;;;12.10;63.80;;;;;;5027219;28;20333;-67
2022/11/23 04:48:06;;;;;;;4.85;1.85;;;12.00;63.90;;;;;;5027174;28;20021;-68
2022/11/23 04:50:33;;;;;;;2.67;2.05;;;12.10;63.90;;;;;;5027046;28;20214;-67
2022/11/23 04:52:59;;;;;;;3.33;2.22;;;12.10;63.80;;;;;;5027073;28;20014;-67
2022/11/23 04:55:25;;;;;;;3.15;2.03;;;12.10;63.80;;;;;;5027045;28;20045;-68
2022/11/23 04:57:51;;;;;;;2.78;1.58;;;12.10;63.80;;;;;;5027017;28;20020;-68
2022/11/23 05:00:17;;;;;;;3.13;1.73;;;12.10;63.80;;;;;;5026956;28;20026;-67
2022/11/23 05:02:43;;;;;;;2.70;1.80;;;12.10;63.90;;;;;;5026934;28;20021;-68
2022/11/23 05:05:09;;;;;;;2.75;1.90;;;12.10;63.80;;;;;;5026861;28;20081;-68
2022/11/23 05:07:34;;;;;;;3.00;1.88;;;12.10;63.70;;;;;;5026870;28;20022;-67
2022/11/23 05:10:00;;;;;;;2.83;2.03;;;12.20;63.80;;;;;;5026732;28;20026;-67
2022/11/23 05:12:26;;;;;;;2.50;2.03;;;12.20;63.70;;;;;;5026727;28;20018;-69
2022/11/23 05:14:52;;;;;;;2.35;1.80;;;12.20;63.60;;;;;;5026693;28;20206;-68
2022/11/23 05:17:18;;;;;;;2.45;1.75;;;12.20;63.60;;;;;;5026676;28;20021;-68
2022/11/23 05:19:44;;;;;;;3.60;1.98;;;12.20;63.60;;;;;;5026593;28;20029;-67
2022/11/23 05:22:10;;;;;;;4.20;2.33;;;12.20;63.60;;;;;;5026586;28;20085;-68
2022/11/23 05:24:35;;;;;;;3.75;2.10;;;12.20;63.60;;;;;;5026519;28;20022;-67
2022/11/23 05:27:01;;;;;;;3.50;2.00;;;12.20;63.80;;;;;;5026481;28;20026;-68
2022/11/23 05:29:27;;;;;;;3.25;1.98;;;12.10;63.80;;;;;;5026363;28;20033;-69
2022/11/23 05:31:53;;;;;;;2.80;1.70;;;12.10;63.90;;;;;;5026381;28;20017;-68
2022/11/23 05:34:19;;;;;;;3.90;2.17;;;12.10;63.90;;;;;;5026329;28;20292;-69
2022/11/23 05:36:45;;;;;;;1.80;1.63;;;12.10;63.80;;;;;;5026320;28;20064;-68
2022/11/23 05:39:10;;;;;;;3.17;2.00;;;12.10;63.80;;;;;;5025592;28;20041;-68
2022/11/23 05:41:36;;;;;;;2.35;2.00;;;12.10;63.80;;;;;;5026202;28;20018;-68
2022/11/23 05:44:03;;;;;;;4.30;2.78;;;12.10;63.80;;;;;;5025990;28;20057;-68
2022/11/23 05:46:29;;;;;;;2.72;2.30;;;12.10;63.70;;;;;;5026112;28;20080;-67
2022/11/23 05:48:55;;;;;;;2.97;2.28;;;12.10;63.80;;;;;;5026064;28;20314;-68
2022/11/23 05:51:20;;;;;;;3.33;2.10;;;12.10;63.80;;;;;;5025945;28;20021;-68
2022/11/23 05:53:47;;;;;;;2.20;1.67;;;12.10;63.80;;;;;;5025973;28;20093;-68
2022/11/23 05:56:12;;;;;;;2.80;1.67;;;12.20;63.80;;;;;;5025945;28;20081;-67
2022/11/23 05:58:38;;;;;;;2.35;1.80;;;12.20;63.60;;;;;;5025860;28;20018;-68
2022/11/23 06:01:04;;;;;;;2.78;1.75;;;12.20;63.70;;;;;;5025833;28;20022;-68
2022/11/23 06:03:30;;;;;;;3.10;1.88;;;12.10;63.60;;;;;;5025759;28;20049;-67
2022/11/23 06:05:56;;;;;;;3.25;1.98;;;12.10;63.70;;;;;;5025763;28;20018;-67
2022/11/23 06:08:21;;;;;;;2.30;1.75;;;12.10;63.70;;;;;;5025689;28;20029;-67
2022/11/23 06:10:47;;;;;;;2.78;1.90;;;12.10;63.90;;;;;;5025561;28;20046;-67
2022/11/23 06:13:13;;;;;;;7.53;2.03;;;12.10;63.80;;;;;;5025597;28;20018;-67
2022/11/23 06:15:39;;;;;;;2.22;2.00;;;12.10;63.90;;;;;;5025573;28;20235;-67
2022/11/23 06:18:05;;;;;;;2.25;1.80;;;12.10;63.90;;;;;;5025516;28;20024;-68
2022/11/23 06:20:31;;;;;;;1.73;1.60;;;12.10;63.90;;;;;;5025471;28;20071;-67
2022/11/23 06:22:56;;;;;;;2.20;1.70;;;12.10;63.90;;;;;;5025438;28;20030;-67
2022/11/23 06:25:22;;;;;;;1.75;1.48;;;12.10;63.80;;;;;;5025336;28;20026;-68
2022/11/23 06:28:06;;;;;;;2.47;2.05;;;12.10;63.70;;;;;;5025323;28;20073;-67
2022/11/23 06:30:32;;;;;;;2.33;1.90;;;12.10;63.70;;;;;;5025230;28;20026;-67
2022/11/23 06:33:00;;;;;;;3.00;1.77;;;12.10;63.80;;;;;;5025223;28;20041;-68
2022/11/23 06:35:26;;;;;;;2.53;1.88;;;12.10;63.70;;;;;;5024056;28;20025;-68
2022/11/23 06:37:53;;;;;;;3.95;1.80;;;12.10;63.50;;;;;;5025110;28;20261;-68
2022/11/23 06:40:20;;;;;;;3.45;1.80;;;12.10;63.50;;;;;;5025118;28;20022;-68
2022/11/23 06:42:47;;;;;;;3.63;2.00;;;12.20;63.60;;;;;;5024863;28;20022;-67
2022/11/23 06:45:13;;;;;;;1.83;1.48;;;12.20;63.60;;;;;;5025041;28;20098;-67
2022/11/23 06:47:39;;;;;;;2.20;1.80;;;12.10;63.70;;;;;;5024977;28;20206;-68
2022/11/23 06:50:05;;;;;;;1.88;1.58;;;12.10;63.80;;;;;;5024226;28;20025;-68
2022/11/23 06:52:31;;;;;;;2.97;1.65;;;12.10;63.80;;;;;;5024522;28;20024;-68
2022/11/23 06:54:57;;;;;;;2.15;1.83;;;12.10;63.70;;;;;;5024830;28;20037;-67
2022/11/23 06:57:22;;;;;;;2.33;1.70;;;12.10;63.80;;;;;;5024783;28;20075;-68
2022/11/23 06:59:48;;;;;;;2.72;2.17;;;12.10;63.80;;;;;;5024766;28;20037;-67
2022/11/23 07:02:14;;;;;;;2.70;1.73;;;12.10;63.80;;;;;;5024718;28;20028;-68
2022/11/23 07:04:40;;;;;;;1.95;1.65;;;12.10;63.60;;;;;;5023610;28;20085;-68
2022/11/23 07:07:08;;;;;;;2.22;1.63;;;12.20;63.60;;;;;;5024625;28;20021;-66
2022/11/23 07:09:34;;;;;;;2.17;1.98;;;12.10;63.70;;;;;;5024516;28;20030;-68
2022/11/23 07:12:00;;;;;;;1.80;1.60;;;12.10;63.70;;;;;;5024512;28;20028;-67
2022/11/23 07:14:26;;;;;;;2.22;1.75;;;12.10;63.70;;;;;;5024501;28;20348;-68
2022/11/23 07:16:52;;;;;;;2.55;1.88;;;12.10;63.80;;;;;;5024455;28;20309;-68
2022/11/23 07:19:18;;;;;;;1.70;1.60;;;12.10;63.80;;;;;;5024389;28;20088;-67
2022/11/23 07:21:50;;;;;;;2.67;1.65;;;12.10;63.70;;;;;;5121758;27;20701;-68
2022/11/23 07:24:16;;;;;;;2.10;1.73;;;12.10;63.80;;;;;;5121474;28;20073;-68
2022/11/23 07:26:42;;;;;;;3.78;2.33;;;12.20;63.70;;;;;;5121468;28;20023;-68
2022/11/23 07:29:08;;;;;;;2.28;1.80;;;12.10;63.60;;;;;;5121419;28;20019;-67
2022/11/23 07:31:34;;;;;;;1.58;1.40;;;12.20;63.60;;;;;;5121347;28;20015;-67
2022/11/23 07:34:00;;;;;;;1.98;1.65;;;12.20;63.70;;;;;;5121343;28;20027;-67
2022/11/23 07:36:25;;;;;;;3.20;1.77;;;12.10;63.60;;;;;;5121242;28;20303;-68
2022/11/23 07:38:51;;;;;;;3.78;2.03;;;12.10;63.70;;;;;;5120043;28;20044;-68
2022/11/23 07:41:17;;;;;;;2.38;1.98;;;12.10;63.80;;;;;;5121101;28;20065;-68
2022/11/23 07:43:43;;;;;;;1.70;1.60;;;12.10;63.70;;;;;;5121130;28;20024;-68
2022/11/23 07:46:09;;;;;;;1.65;1.55;;;12.10;63.70;;;;;;5121117;28;20012;-68
2022/11/23 07:48:34;;;;;;;1.30;1.20;;;12.10;63.80;;;;;;5121339;28;20027;-68
2022/11/23 07:51:00;;;;;;;2.38;1.73;;;12.10;63.80;;;;;;5121003;28;20026;-68
2022/11/23 07:53:26;;;;;;;3.67;1.98;;;12.10;63.70;;;;;;5120939;28;20020;-68
2022/11/23 07:55:59;;;;;;;2.17;1.52;;;12.10;63.80;;;;;;5120893;28;20183;-67
2022/11/23 07:58:25;;;;;;;2.67;1.67;;;12.10;63.90;;;;;;5120839;28;20200;-68
2022/11/23 08:00:51;;;;;;;2.80;1.63;;;12.10;63.90;;;;;;5120756;28;20027;-69
2022/11/23 08:03:17;;;;;;;3.40;1.90;;;12.10;63.80;;;;;;5120747;28;20023;-69
2022/11/23 08:05:43;;;;;;;3.72;2.28;;;12.20;63.70;;;;;;5120726;28;20078;-69
2022/11/23 08:08:09;;;;;;;3.15;2.10;;;12.10;63.50;;;;;;5120686;28;20020;-69
2022/11/23 08:10:35;;;;;;;1.98;1.75;;;12.20;63.60;;;;;;5120639;28;20203;-69
2022/11/23 08:13:03;;;;;;;3.03;2.20;;;12.20;63.50;;;;;;5120577;28;20024;-68
2022/11/23 08:15:29;;;;;;;2.28;1.60;;;12.20;63.50;;;;;;5120570;28;20043;-68
2022/11/23 08:17:59;;;;;;;2.00;1.70;;;12.20;63.60;;;;;;5120449;28;20035;-69
2022/11/23 08:20:27;;;;;;;2.33;1.90;;;12.20;63.60;;;;;;5120193;28;20365;-68
2022/11/23 08:22:54;;;;;;;2.97;2.67;;;12.10;63.60;;;;;;5120395;28;20015;-69
2022/11/23 08:25:25;;;;;;;2.83;2.00;;;12.10;63.60;;;;;;5120338;28;20308;-67
2022/11/23 08:27:58;;;;;;;2.35;1.83;;;12.10;63.70;;;;;;5120322;28;20027;-68
2022/11/23 08:30:25;;;;;;;2.60;1.85;;;12.10;63.70;;;;;;5120292;28;20377;-67
2022/11/23 08:32:51;;;;;;;1.67;1.40;;;12.10;63.80;;;;;;5108622;28;20023;-68
2022/11/23 08:35:17;;;;;;;2.05;1.90;;;12.10;63.80;;;;;;5106536;28;20031;-67
2022/11/23 08:37:43;;;;;;;2.10;1.67;;;12.10;63.60;;;;;;5106487;28;20048;-68
2022/11/23 08:40:09;;;;;;;2.40;2.03;;;12.10;63.70;;;;;;5106394;28;20023;-68
2022/11/23 08:42:35;;;;;;;2.65;1.42;;;12.10;63.70;;;;;;5106389;28;20012;-68
2022/11/23 08:45:03;;;;;;;1.98;1.55;;;12.10;63.70;;;;;;5106348;28;20043;-67
2022/11/23 08:47:30;;;;;;;2.15;1.40;;;12.10;63.60;;;;;;5106306;28;20022;-68
2022/11/23 08:49:55;;;;;;;2.10;1.73;;;12.10;63.70;;;;;;5106272;28;20016;-67
2022/11/23 08:52:21;;;;;;;2.38;1.48;;;12.20;63.70;;;;;;5106256;28;20031;-68
2022/11/23 08:54:47;;;;;;;2.50;1.90;;;12.20;63.60;;;;;;5106205;28;20079;-69
2022/11/23 08:57:13;;;;;;;2.58;1.50;;;12.20;63.50;;;;;;5106149;28;20042;-68
2022/11/23 08:59:39;;;;;;;3.03;2.15;;;12.20;63.50;;;;;;5106043;28;20028;-67
2022/11/23 09:02:05;;;;;;;2.10;1.60;;;12.20;63.50;;;;;;5106064;28;20181;-67
2022/11/23 09:04:30;;;;;;;1.67;1.45;;;12.20;63.50;;;;;;5106007;28;20015;-68
2022/11/23 09:06:56;;;;;;;2.35;1.60;;;12.10;63.60;;;;;;5105932;28;20214;-67
2022/11/23 09:09:22;;;;;;;1.42;1.33;;;12.20;63.60;;;;;;5105908;28;20016;-67
2022/11/23 09:11:48;;;;;;;3.03;2.45;;;12.10;63.50;;;;;;5105866;28;20028;-67
2022/11/23 09:14:14;;;;;;;2.15;1.60;;;12.10;63.70;;;;;;5105830;28;20020;-67
2022/11/23 09:16:40;;;;;;;2.63;1.60;;;12.10;63.80;;;;;;5105756;28;20342;-67
2022/11/23 09:19:07;;;;;;;2.05;1.60;;;12.10;63.80;;;;;;5105710;28;20083;-68
2022/11/23 09:21:34;;;;;;;1.80;1.55;;;12.10;63.70;;;;;;5105459;28;20111;-67
2022/11/23 09:24:01;;;;;;;1.90;1.45;;;12.10;63.80;;;;;;5105637;28;20016;-68
2022/11/23 09:26:27;;;;;;;1.48;1.30;;;12.10;63.70;;;;;;5105590;28;20020;-67
2022/11/23 09:28:53;;;;;;;2.08;1.63;;;12.10;63.80;;;;;;5105513;28;20205;-67
2022/11/23 09:31:18;;;;;;;2.35;1.55;;;12.10;63.70;;;;;;5105455;28;20024;-68
2022/11/23 09:33:44;;;;;;;2.42;1.83;;;12.10;63.70;;;;;;5105434;28;20046;-67
2022/11/23 09:36:10;;;;;;;1.88;1.48;;;12.10;63.60;;;;;;5105390;28;20023;-68
2022/11/23 09:38:36;;;;;;;1.90;1.60;;;12.20;63.50;;;;;;5105313;28;20031;-67
2022/11/23 09:41:40;;;;;;;1.70;1.50;;;12.20;64.10;;;;;;5105217;28;20020;-68
2022/11/23 09:44:35;;;;;;;1.70;1.30;;;12.20;63.40;;;;;;5101413;28;20039;-68
2022/11/23 09:47:10;;;;;;;3.17;1.80;;;12.20;63.50;;;;;;5094340;28;20085;-68
2022/11/23 09:49:55;;;;;;;2.15;1.45;;;12.20;63.50;;;;;;5105152;28;20020;-68
2022/11/23 09:52:24;;;;;;;1.92;1.20;;;12.20;63.60;;;;;;5105140;28;20019;-68
2022/11/23 09:54:54;;;;;;;2.03;1.73;;;12.20;63.60;;;;;;5105034;28;20016;-67
2022/11/23 09:57:24;;;;;;;2.58;1.70;;;12.20;63.60;;;;;;5104996;28;20043;-68
2022/11/23 10:00:04;;;;;;;3.00;2.53;;;12.10;63.60;;;;;;5105130;28;20016;-67
2022/11/23 10:02:33;;;;;;;1.98;1.52;;;12.20;63.70;;;;;;5104920;28;20035;-67
2022/11/23 10:05:00;;;;;;;2.03;1.60;;;12.10;63.60;;;;;;5104816;28;20026;-68
2022/11/23 10:07:45;;;;;;;2.72;1.70;;;12.10;63.60;;;;;;5104749;28;20357;-66
2022/11/23 10:10:20;;;;;;;1.75;1.33;;;12.10;63.60;;;;;;5104776;28;20354;-68
2022/11/23 10:13:04;;;;;;;1.70;1.60;;;12.10;63.60;;;;;;5104667;28;20020;-67
2022/11/23 10:15:44;;;;;;;1.92;1.45;;;12.10;63.80;;;;;;5104614;28;20016;-68
2022/11/23 10:18:25;;;;;;;2.55;1.70;;;12.10;63.80;;;;;;5104610;28;20027;-68
2022/11/23 10:20:58;;;;;;;2.33;1.70;;;12.20;63.70;;;;;;5104298;28;20043;-68
2022/11/23 10:23:51;;;;;;;1.75;1.63;;;12.20;63.60;;;;;;5104501;28;20027;-67
2022/11/23 10:26:20;;;;;;;1.42;1.20;;;12.20;63.50;;;;;;5104450;28;20042;-68
2022/11/23 10:28:46;;;;;;;2.72;1.50;;;12.20;63.40;;;;;;5104388;28;20044;-66
2022/11/23 10:31:18;;;;;;;2.42;1.70;;;12.20;63.40;;;;;;5104342;28;20028;-68
2022/11/23 10:34:07;;;;;;;2.20;1.75;;;12.20;63.50;;;;;;5104297;28;20015;-68
2022/11/23 10:36:37;;;;;;;1.95;1.58;;;12.20;63.50;;;;;;5104313;28;20016;-67
2022/11/23 10:39:23;;;;;;;1.42;1.30;;;12.20;63.50;;;;;;5104231;28;20043;-68
2022/11/23 10:41:57;;;;;;;2.08;1.50;;;12.20;63.50;;;;;;5104133;28;20020;-67
2022/11/23 10:44:29;;;;;;;1.42;1.30;;;12.10;63.50;;;;;;5104154;28;20019;-69
2022/11/23 10:46:55;;;;;;;1.50;1.30;;;12.10;63.50;;;;;;5104094;28;20019;-68
2022/11/23 10:49:29;;;;;;;1.80;1.35;;;12.20;63.60;;;;;;5104072;28;20039;-69
2022/11/23 10:52:04;;;;;;;2.20;1.38;;;12.10;63.60;;;;;;5104078;28;20067;-69
2022/11/23 10:55:01;;;;;;;1.83;1.38;;;12.10;63.70;;;;;;5103775;28;20026;-68
2022/11/23 10:57:26;;;;;;;2.00;1.60;;;12.10;63.70;;;;;;5091412;28;20073;-68
2022/11/23 11:00:04;;;;;;;1.60;1.50;;;12.20;63.70;;;;;;5103825;28;20024;-68
2022/11/23 11:02:39;;;;;;;1.35;1.10;;;12.10;63.60;;;;;;5103892;28;20110;-69
2022/11/23 11:05:28;;;;;;;1.77;1.27;;;12.20;63.70;;;;;;5103890;28;20016;-69
2022/11/23 11:07:57;;;;;;;2.00;1.70;;;12.20;63.70;;;;;;5103797;28;20296;-68
2022/11/23 11:10:45;;;;;;;1.80;1.50;;;12.20;63.40;;;;;;5103793;28;20016;-68
2022/11/23 11:13:24;;;;;;;1.98;1.33;;;12.20;63.40;;;;;;5103791;28;20027;-68
2022/11/23 11:15:55;;;;;;;1.58;1.38;;;12.20;63.30;;;;;;5102559;28;20016;-68
2022/11/23 11:18:27;;;;;;;1.58;1.30;;;12.20;63.40;;;;;;5103741;28;20019;-69
2022/11/23 11:21:28;;;;;;;1.88;1.60;;;12.20;63.40;;;;;;5103444;28;20039;-69
2022/11/23 11:24:06;;;;;;;2.65;1.40;;;12.20;63.40;;;;;;5041510;28;20025;-68
2022/11/23 11:26:34;;;;;;;1.38;1.10;;;12.20;63.50;;;;;;5095734;28;20051;-68
2022/11/23 11:29:04;;;;;;;1.67;1.40;;;12.20;63.50;;;;;;5103595;28;20012;-68
2022/11/23 11:31:53;;;;;;;1.80;1.27;;;12.20;63.50;;;;;;5103548;28;20023;-68
2022/11/23 11:34:21;;;;;;;1.55;1.40;;;12.20;63.60;;;;;;5103576;28;20020;-68
2022/11/23 11:37:16;;;;;;;1.67;1.57;;;12.20;63.60;;;;;;5103555;28;20024;-68
2022/11/23 11:39:54;;;;;;;1.60;1.42;;;12.20;63.50;;;;;;5095042;28;20091;-67
2022/11/23 11:42:35;;;;;;;1.40;1.17;;;12.20;63.60;;;;;;5103521;28;20036;-68
2022/11/23 11:45:03;;;;;;;2.25;1.65;;;12.10;63.60;;;;;;5103460;28;20019;-68
2022/11/23 11:47:44;;;;;;;2.28;1.30;;;12.10;63.60;;;;;;5103378;28;20023;-67
2022/11/23 11:50:46;;;;;;;1.70;1.20;;;12.20;63.70;;;;;;5103421;28;20016;-68
2022/11/23 11:53:17;;;;;;;1.50;1.35;;;12.10;63.70;;;;;;5103312;28;20019;-67
2022/11/23 11:56:13;;;;;;;1.55;1.25;;;12.20;63.70;;;;;;5103378;28;20146;-68
2022/11/23 11:58:47;;;;;;;1.50;1.40;;;12.20;63.60;;;;;;5103378;28;20400;-69
2022/11/23 12:01:33;;;;;;;1.92;1.83;;;12.20;63.40;;;;;;5103241;28;20320;-68
2022/11/23 12:04:18;;;;;;;2.28;1.70;;;12.20;63.40;;;;;;5103556;28;20020;-67
2022/11/23 12:07:11;;;;;;;1.98;1.60;;;12.20;63.50;;;;;;5103932;28;20196;-68
2022/11/23 12:09:43;;;;;;;1.80;1.20;;;12.20;63.50;;;;;;5107104;28;20035;-68
2022/11/23 12:12:16;;;;;;;1.90;1.70;;;12.20;63.60;;;;;;5107316;28;20308;-67
2022/11/23 12:14:45;;;;;;;1.02;1.00;;;12.10;63.50;;;;;;5107253;28;20062;-67
2022/11/23 12:17:29;;;;;;;;;;;12.10;63.60;;;;;;5107632;28;20039;-67
2022/11/23 12:20:29;;;;;;;2.25;1.55;;;12.20;63.70;;;;;;5106657;28;19920;-67
2022/11/23 12:23:39;;;;;;;2.53;1.80;;;12.10;63.70;;;;;;5106870;28;20040;-67
2022/11/23 12:26:20;;;;;;;4.57;2.10;;;12.10;63.70;;;;;;5091002;28;20106;-67
2022/11/23 12:29:09;;;;;;;1.13;1.02;;;12.10;63.80;;;;;;5106743;28;20023;-68
2022/11/23 12:31:52;;;;;;;1.40;1.30;;;12.10;63.80;;;;;;5106716;28;20031;-68
2022/11/23 12:34:29;;;;;;;2.45;1.60;;;12.10;63.80;;;;;;5106653;28;20091;-68
2022/11/23 12:37:37;;;;;;;1.50;1.20;;;12.10;63.80;;;;;;5106591;28;20023;-67
2022/11/23 12:40:52;;;;;;;1.92;1.48;;;12.10;63.80;;;;;;5098149;28;20035;-67
2022/11/23 12:43:31;;;;;;;2.65;2.00;;;12.10;63.80;;;;;;5101427;28;20091;-67
2022/11/23 12:46:21;;;;;;;1.95;1.40;;;12.20;63.60;;;;;;5106420;28;20019;-67
2022/11/23 12:49:13;;;;;;;1.35;1.20;;;12.20;63.60;;;;;;5106368;28;20017;-68
2022/11/23 12:52:05;;;;;;;2.30;1.50;;;12.20;63.50;;;;;;5106268;28;20039;-68
2022/11/23 12:54:40;;;;;;;2.05;1.70;;;12.20;63.50;;;;;;5095392;28;20085;-68
2022/11/23 12:57:37;;;;;;;1.15;1.00;;;12.20;63.60;;;;;;5106169;28;20042;-67
2022/11/23 13:00:22;;;;;;;2.45;1.40;;;12.20;63.70;;;;;;5105493;28;20028;-68
2022/11/23 13:02:59;;;;;;;1.52;1.23;;;12.10;63.70;;;;;;5106102;28;20311;-67